DLH2901 EKCH-LDZA
Flight info
| Callsign | DLH2901 |
|---|---|
| Flight time | N/A |
| Altitude | 39000 |
| Route | SALLO1A SALLO DCT BEBEB Z14 USEDU DCT RAKIT M725 HDO DCT PISAM DCT PETOV PETOV2Z |
| Aircraft | A20N/M-SDE2E3FGHIRWXY/LB1 |
Departure
| Time | 2026-04-26 20:13 |
|---|---|
| Airport | Copenhagen Kastrup Airport (EKCH) |
Arrival
| Time | N/A |
|---|---|
| Airport | Zagreb Franjo Tuđman International Airport (LDZA) |
| Time | Latitude | Longitude | Altitude | Speed | Heading |
|---|---|---|---|---|---|
| 2026-04-26 19:46 | 55.62634 | 12.65494 | 21 ft | 0 kts | 82° |
| 2026-04-26 20:02 | 55.62633 | 12.65483 | 21 ft | 3 kts | 81° |
| 2026-04-26 20:02 | 55.62630 | 12.65448 | 22 ft | 3 kts | 81° |
| 2026-04-26 20:02 | 55.62628 | 12.65425 | 22 ft | 3 kts | 81° |
| 2026-04-26 20:03 | 55.62624 | 12.65377 | 21 ft | 3 kts | 86° |
| 2026-04-26 20:03 | 55.62624 | 12.65343 | 21 ft | 3 kts | 105° |
| 2026-04-26 20:03 | 55.62629 | 12.65319 | 24 ft | 3 kts | 160° |
| 2026-04-26 20:03 | 55.62633 | 12.65316 | 26 ft | 1 kts | 176° |
| 2026-04-26 20:06 | 55.62632 | 12.65317 | 25 ft | 2 kts | 176° |
| 2026-04-26 20:06 | 55.62602 | 12.65320 | 25 ft | 7 kts | 176° |
| 2026-04-26 20:06 | 55.62539 | 12.65327 | 22 ft | 11 kts | 176° |
| 2026-04-26 20:07 | 55.62454 | 12.65328 | 24 ft | 12 kts | 180° |
| 2026-04-26 20:07 | 55.62356 | 12.65329 | 26 ft | 16 kts | 180° |
| 2026-04-26 20:07 | 55.62291 | 12.65307 | 24 ft | 3 kts | 241° |
| 2026-04-26 20:07 | 55.62282 | 12.65262 | 25 ft | 5 kts | 249° |
| 2026-04-26 20:08 | 55.62254 | 12.65212 | 28 ft | 6 kts | 203° |
| 2026-04-26 20:08 | 55.62205 | 12.65173 | 27 ft | 9 kts | 211° |
| 2026-04-26 20:08 | 55.62142 | 12.65104 | 27 ft | 14 kts | 213° |
| 2026-04-26 20:08 | 55.62038 | 12.64985 | 26 ft | 21 kts | 213° |
| 2026-04-26 20:09 | 55.62015 | 12.64959 | 25 ft | 4 kts | 213° |
| 2026-04-26 20:09 | 55.61967 | 12.64905 | 24 ft | 13 kts | 213° |
| 2026-04-26 20:09 | 55.61865 | 12.64790 | 22 ft | 20 kts | 212° |
| 2026-04-26 20:09 | 55.61740 | 12.64647 | 23 ft | 24 kts | 212° |
| 2026-04-26 20:10 | 55.61589 | 12.64473 | 23 ft | 28 kts | 212° |
| 2026-04-26 20:10 | 55.61414 | 12.64272 | 19 ft | 32 kts | 213° |
| 2026-04-26 20:10 | 55.61219 | 12.64049 | 19 ft | 35 kts | 213° |
| 2026-04-26 20:10 | 55.61012 | 12.63805 | 24 ft | 36 kts | 211° |
| 2026-04-26 20:11 | 55.60802 | 12.63606 | 28 ft | 29 kts | 172° |
| 2026-04-26 20:11 | 55.60732 | 12.63709 | 27 ft | 0 kts | 134° |
| 2026-04-26 20:11 | 55.60721 | 12.63729 | 27 ft | 6 kts | 134° |
| 2026-04-26 20:12 | 55.60702 | 12.63905 | 29 ft | 9 kts | 62° |
| 2026-04-26 20:12 | 55.60757 | 12.64000 | 30 ft | 25 kts | 41° |
| 2026-04-26 20:12 | 55.61087 | 12.64509 | 23 ft | 99 kts | 41° |
| 2026-04-26 20:12 | 55.61782 | 12.65579 | 39 ft | 160 kts | 41° |
| 2026-04-26 20:13 | 55.62673 | 12.66933 | 409 ft | 179 kts | 41° |
| 2026-04-26 20:13 | 55.63639 | 12.68448 | 1013 ft | 188 kts | 40° |
| 2026-04-26 20:13 | 55.64626 | 12.70011 | 1728 ft | 191 kts | 39° |
| 2026-04-26 20:13 | 55.65653 | 12.71599 | 2281 ft | 204 kts | 39° |
| 2026-04-26 20:14 | 55.66771 | 12.73255 | 2711 ft | 218 kts | 38° |
| 2026-04-26 20:14 | 55.67977 | 12.75033 | 3185 ft | 235 kts | 38° |
| 2026-04-26 20:14 | 55.69237 | 12.77088 | 3693 ft | 259 kts | 47° |
| 2026-04-26 20:14 | 55.70263 | 12.79777 | 4601 ft | 267 kts | 61° |
| 2026-04-26 20:15 | 55.70778 | 12.82941 | 5587 ft | 274 kts | 85° |
| 2026-04-26 20:15 | 55.70372 | 12.86258 | 6559 ft | 282 kts | 119° |
| 2026-04-26 20:15 | 55.68991 | 12.88729 | 7466 ft | 286 kts | 152° |
| 2026-04-26 20:15 | 55.67160 | 12.90112 | 8340 ft | 293 kts | 162° |
| 2026-04-26 20:16 | 55.65195 | 12.91289 | 9230 ft | 301 kts | 163° |
| 2026-04-26 20:16 | 55.63174 | 12.92504 | 10148 ft | 310 kts | 163° |
| 2026-04-26 20:16 | 55.61094 | 12.93797 | 10757 ft | 328 kts | 162° |
| 2026-04-26 20:16 | 55.58890 | 12.95202 | 11206 ft | 350 kts | 162° |
| 2026-04-26 20:17 | 55.56545 | 12.96721 | 11918 ft | 362 kts | 162° |
| 2026-04-26 20:17 | 55.54140 | 12.98291 | 12783 ft | 371 kts | 162° |
| 2026-04-26 20:17 | 55.51729 | 12.99868 | 13661 ft | 378 kts | 162° |
| 2026-04-26 20:17 | 55.50077 | 13.00949 | 14237 ft | 382 kts | 162° |
| 2026-04-26 20:18 | 55.46695 | 13.03161 | 15333 ft | 389 kts | 162° |
| 2026-04-26 20:18 | 55.44163 | 13.04816 | 16179 ft | 394 kts | 162° |
| 2026-04-26 20:18 | 55.41566 | 13.06510 | 17020 ft | 398 kts | 162° |
| 2026-04-26 20:18 | 55.38974 | 13.08199 | 17824 ft | 402 kts | 162° |
| 2026-04-26 20:19 | 55.36328 | 13.09920 | 18609 ft | 407 kts | 162° |
| 2026-04-26 20:19 | 55.33644 | 13.11664 | 19154 ft | 411 kts | 162° |
| 2026-04-26 20:19 | 55.30957 | 13.13407 | 19809 ft | 416 kts | 162° |
| 2026-04-26 20:19 | 55.28218 | 13.15181 | 20494 ft | 421 kts | 162° |
| 2026-04-26 20:20 | 55.25453 | 13.16969 | 21170 ft | 425 kts | 162° |
| 2026-04-26 20:20 | 55.22655 | 13.18776 | 21830 ft | 430 kts | 162° |
| 2026-04-26 20:20 | 55.19866 | 13.20574 | 22454 ft | 434 kts | 162° |
| 2026-04-26 20:20 | 55.17004 | 13.22417 | 23102 ft | 439 kts | 162° |
| 2026-04-26 20:21 | 55.14115 | 13.24275 | 23714 ft | 443 kts | 162° |
| 2026-04-26 20:21 | 55.11233 | 13.26125 | 24232 ft | 447 kts | 162° |
| 2026-04-26 20:21 | 55.08277 | 13.28019 | 24722 ft | 452 kts | 162° |
| 2026-04-26 20:21 | 55.05342 | 13.29897 | 25204 ft | 455 kts | 162° |
| 2026-04-26 20:22 | 55.02350 | 13.31810 | 25762 ft | 456 kts | 162° |
| 2026-04-26 20:22 | 54.99353 | 13.33722 | 26262 ft | 459 kts | 163° |
| 2026-04-26 20:22 | 54.96368 | 13.35623 | 26738 ft | 462 kts | 163° |
| 2026-04-26 20:22 | 54.93329 | 13.37555 | 27216 ft | 465 kts | 163° |
| 2026-04-26 20:23 | 54.90268 | 13.39499 | 27674 ft | 468 kts | 163° |
| 2026-04-26 20:23 | 54.87194 | 13.41449 | 28119 ft | 471 kts | 163° |
| 2026-04-26 20:23 | 54.84135 | 13.43390 | 28548 ft | 473 kts | 163° |
| 2026-04-26 20:23 | 54.81049 | 13.45347 | 28984 ft | 476 kts | 163° |
| 2026-04-26 20:24 | 54.77911 | 13.47336 | 29407 ft | 479 kts | 163° |
| 2026-04-26 20:24 | 54.74758 | 13.49333 | 29820 ft | 481 kts | 163° |
| 2026-04-26 20:24 | 54.71632 | 13.51312 | 30237 ft | 483 kts | 163° |
| 2026-04-26 20:24 | 54.68449 | 13.53325 | 30586 ft | 486 kts | 163° |
| 2026-04-26 20:25 | 54.65256 | 13.55343 | 30917 ft | 488 kts | 163° |
| 2026-04-26 20:25 | 54.63137 | 13.56681 | 31162 ft | 489 kts | 163° |
| 2026-04-26 20:25 | 54.58892 | 13.59353 | 31815 ft | 487 kts | 163° |
| 2026-04-26 20:25 | 54.55706 | 13.61353 | 32298 ft | 485 kts | 163° |
| 2026-04-26 20:26 | 54.52567 | 13.63325 | 32734 ft | 484 kts | 163° |
| 2026-04-26 20:26 | 54.49385 | 13.65323 | 33151 ft | 483 kts | 163° |
| 2026-04-26 20:26 | 54.46229 | 13.67307 | 33615 ft | 480 kts | 163° |
| 2026-04-26 20:26 | 54.43138 | 13.69255 | 34075 ft | 479 kts | 163° |
| 2026-04-26 20:27 | 54.39998 | 13.71233 | 34441 ft | 478 kts | 163° |
| 2026-04-26 20:27 | 54.36863 | 13.73205 | 34754 ft | 478 kts | 163° |
| 2026-04-26 20:27 | 54.33771 | 13.75141 | 35044 ft | 478 kts | 163° |
| 2026-04-26 20:27 | 54.30639 | 13.77094 | 35335 ft | 478 kts | 163° |
| 2026-04-26 20:28 | 54.27501 | 13.79044 | 35636 ft | 478 kts | 163° |
| 2026-04-26 20:28 | 54.24404 | 13.80960 | 35911 ft | 478 kts | 163° |
| 2026-04-26 20:28 | 54.21268 | 13.82894 | 36184 ft | 477 kts | 163° |
| 2026-04-26 20:28 | 54.18163 | 13.84803 | 36431 ft | 477 kts | 163° |
| 2026-04-26 20:29 | 54.15024 | 13.86728 | 36696 ft | 477 kts | 163° |
| 2026-04-26 20:29 | 54.11887 | 13.88646 | 36939 ft | 478 kts | 163° |
| 2026-04-26 20:29 | 54.08745 | 13.90563 | 37157 ft | 479 kts | 163° |
| 2026-04-26 20:29 | 54.05633 | 13.92457 | 37401 ft | 479 kts | 163° |
| 2026-04-26 20:30 | 54.02473 | 13.94374 | 37654 ft | 479 kts | 163° |
| 2026-04-26 20:30 | 53.99320 | 13.96279 | 37908 ft | 479 kts | 163° |
| 2026-04-26 20:30 | 53.96204 | 13.98156 | 38149 ft | 479 kts | 163° |
| 2026-04-26 20:30 | 53.93054 | 14.00046 | 38364 ft | 479 kts | 163° |
| 2026-04-26 20:31 | 53.89899 | 14.01929 | 38643 ft | 477 kts | 163° |
| 2026-04-26 20:31 | 53.86795 | 14.03771 | 38900 ft | 477 kts | 163° |
| 2026-04-26 20:31 | 53.83641 | 14.05637 | 39076 ft | 477 kts | 163° |
| 2026-04-26 20:31 | 53.80544 | 14.07462 | 39222 ft | 477 kts | 163° |
| 2026-04-26 20:32 | 53.77382 | 14.09320 | 39287 ft | 479 kts | 163° |
| 2026-04-26 20:32 | 53.71102 | 14.12998 | 39297 ft | 478 kts | 163° |
| 2026-04-26 20:33 | 53.64797 | 14.16685 | 39294 ft | 477 kts | 163° |
| 2026-04-26 20:33 | 53.58538 | 14.20352 | 39303 ft | 477 kts | 163° |
| 2026-04-26 20:34 | 53.52308 | 14.24000 | 39309 ft | 476 kts | 163° |